sensor_id;sensor_type;location;lat;lon;timestamp;pressure;altitude;pressure_sealevel;temperature;humidity
47815;BME280;33579;50.058;18.130;2023-04-15T00:00:37;97910.59;;;8.39;100.00
47815;BME280;33579;50.058;18.130;2023-04-15T00:01:38;97922.22;;;8.18;100.00
47815;BME280;33579;50.058;18.130;2023-04-15T00:02:40;97928.50;;;8.07;100.00
47815;BME280;33579;50.058;18.130;2023-04-15T00:03:42;97923.72;;;8.02;100.00
47815;BME280;33579;50.058;18.130;2023-04-15T00:04:45;97922.22;;;8.00;100.00
47815;BME280;33579;50.058;18.130;2023-04-15T00:05:47;97913.53;;;7.99;100.00
47815;BME280;33579;50.058;18.130;2023-04-15T00:06:50;97922.22;;;8.00;100.00
47815;BME280;33579;50.058;18.130;2023-04-15T00:07:51;97914.38;;;8.00;100.00
47815;BME280;33579;50.058;18.130;2023-04-15T00:08:53;97924.63;;;7.93;100.00
47815;BME280;33579;50.058;18.130;2023-04-15T00:09:54;97930.28;;;7.88;100.00
47815;BME280;33579;50.058;18.130;2023-04-15T00:10:56;97924.53;;;7.85;100.00
47815;BME280;33579;50.058;18.130;2023-04-15T00:11:58;97925.25;;;7.77;100.00
47815;BME280;33579;50.058;18.130;2023-04-15T00:13:00;97922.00;;;7.65;100.00
47815;BME280;33579;50.058;18.130;2023-04-15T00:14:01;97927.72;;;7.61;100.00
47815;BME280;33579;50.058;18.130;2023-04-15T00:15:03;97932.25;;;7.58;100.00
47815;BME280;33579;50.058;18.130;2023-04-15T00:16:06;97935.16;;;7.55;100.00
47815;BME280;33579;50.058;18.130;2023-04-15T00:17:07;97933.06;;;7.59;100.00
47815;BME280;33579;50.058;18.130;2023-04-15T00:18:09;97931.81;;;7.63;100.00
47815;BME280;33579;50.058;18.130;2023-04-15T00:19:10;97938.41;;;7.67;100.00
47815;BME280;33579;50.058;18.130;2023-04-15T00:20:12;97928.38;;;7.63;100.00
47815;BME280;33579;50.058;18.130;2023-04-15T00:21:14;97929.84;;;7.65;100.00
47815;BME280;33579;50.058;18.130;2023-04-15T00:22:15;97929.50;;;7.60;100.00
47815;BME280;33579;50.058;18.130;2023-04-15T00:23:17;97930.09;;;7.54;100.00
47815;BME280;33579;50.058;18.130;2023-04-15T00:24:18;97926.34;;;7.56;100.00
47815;BME280;33579;50.058;18.130;2023-04-15T00:25:20;97929.63;;;7.58;100.00
47815;BME280;33579;50.058;18.130;2023-04-15T00:26:22;97926.19;;;7.58;100.00
47815;BME280;33579;50.058;18.130;2023-04-15T00:27:23;97925.78;;;7.53;100.00
47815;BME280;33579;50.058;18.130;2023-04-15T00:28:25;97921.16;;;7.47;100.00
47815;BME280;33579;50.058;18.130;2023-04-15T00:29:26;97920.63;;;7.43;100.00
47815;BME280;33579;50.058;18.130;2023-04-15T00:30:28;97938.59;;;7.56;100.00
47815;BME280;33579;50.058;18.130;2023-04-15T00:31:30;97937.47;;;7.58;100.00
47815;BME280;33579;50.058;18.130;2023-04-15T00:32:32;97934.72;;;7.60;100.00
47815;BME280;33579;50.058;18.130;2023-04-15T00:33:34;97940.63;;;7.62;100.00
47815;BME280;33579;50.058;18.130;2023-04-15T00:34:35;97945.06;;;7.62;100.00
47815;BME280;33579;50.058;18.130;2023-04-15T00:35:37;97946.53;;;7.64;100.00
47815;BME280;33579;50.058;18.130;2023-04-15T00:36:38;97943.78;;;7.66;100.00
47815;BME280;33579;50.058;18.130;2023-04-15T00:37:40;97942.50;;;7.70;100.00
47815;BME280;33579;50.058;18.130;2023-04-15T00:38:42;97946.28;;;7.67;100.00
47815;BME280;33579;50.058;18.130;2023-04-15T00:39:44;97943.22;;;7.72;100.00
47815;BME280;33579;50.058;18.130;2023-04-15T00:40:45;97942.75;;;7.77;100.00
47815;BME280;33579;50.058;18.130;2023-04-15T00:41:47;97945.09;;;7.80;100.00
47815;BME280;33579;50.058;18.130;2023-04-15T00:42:50;97946.75;;;7.81;100.00
47815;BME280;33579;50.058;18.130;2023-04-15T00:43:51;97948.28;;;7.73;100.00
47815;BME280;33579;50.058;18.130;2023-04-15T00:44:53;97954.63;;;7.71;100.00
47815;BME280;33579;50.058;18.130;2023-04-15T00:45:57;97951.22;;;7.70;100.00
47815;BME280;33579;50.058;18.130;2023-04-15T00:46:59;97953.22;;;7.77;100.00
47815;BME280;33579;50.058;18.130;2023-04-15T00:48:01;97955.56;;;7.80;100.00
47815;BME280;33579;50.058;18.130;2023-04-15T00:49:04;97953.75;;;7.80;100.00
47815;BME280;33579;50.058;18.130;2023-04-15T00:50:07;97957.06;;;7.82;100.00
47815;BME280;33579;50.058;18.130;2023-04-15T00:51:09;97962.53;;;7.89;100.00
47815;BME280;33579;50.058;18.130;2023-04-15T00:52:10;97958.00;;;7.91;100.00
47815;BME280;33579;50.058;18.130;2023-04-15T00:53:12;97960.13;;;7.96;100.00
47815;BME280;33579;50.058;18.130;2023-04-15T00:54:14;97969.22;;;8.01;100.00
47815;BME280;33579;50.058;18.130;2023-04-15T00:55:16;97969.59;;;8.07;100.00
47815;BME280;33579;50.058;18.130;2023-04-15T00:56:19;97970.81;;;8.12;100.00
47815;BME280;33579;50.058;18.130;2023-04-15T00:57:22;97966.38;;;8.13;100.00
47815;BME280;33579;50.058;18.130;2023-04-15T00:58:23;97970.13;;;8.10;100.00
47815;BME280;33579;50.058;18.130;2023-04-15T00:59:25;97972.59;;;8.12;100.00
47815;BME280;33579;50.058;18.130;2023-04-15T01:00:28;97971.63;;;8.13;100.00
47815;BME280;33579;50.058;18.130;2023-04-15T01:01:36;97971.84;;;8.20;100.00
47815;BME280;33579;50.058;18.130;2023-04-15T01:02:38;97980.41;;;8.22;100.00
47815;BME280;33579;50.058;18.130;2023-04-15T01:03:40;97979.44;;;8.23;100.00
47815;BME280;33579;50.058;18.130;2023-04-15T01:04:42;97981.22;;;8.22;100.00
47815;BME280;33579;50.058;18.130;2023-04-15T01:05:43;97981.88;;;8.24;100.00
47815;BME280;33579;50.058;18.130;2023-04-15T01:06:45;97983.84;;;8.22;100.00
47815;BME280;33579;50.058;18.130;2023-04-15T01:07:47;97986.84;;;8.27;100.00
47815;BME280;33579;50.058;18.130;2023-04-15T01:08:49;97989.59;;;8.26;100.00
47815;BME280;33579;50.058;18.130;2023-04-15T01:09:51;97986.00;;;8.27;100.00
47815;BME280;33579;50.058;18.130;2023-04-15T01:10:57;97979.78;;;8.28;100.00
47815;BME280;33579;50.058;18.130;2023-04-15T01:12:03;97983.38;;;8.27;100.00
47815;BME280;33579;50.058;18.130;2023-04-15T01:13:04;97977.63;;;8.23;100.00
47815;BME280;33579;50.058;18.130;2023-04-15T01:14:08;97981.34;;;8.21;100.00
47815;BME280;33579;50.058;18.130;2023-04-15T01:15:10;97980.53;;;8.20;100.00
47815;BME280;33579;50.058;18.130;2023-04-15T01:16:13;97981.13;;;8.14;100.00
47815;BME280;33579;50.058;18.130;2023-04-15T01:17:16;97982.94;;;8.13;100.00
47815;BME280;33579;50.058;18.130;2023-04-15T01:18:18;97987.06;;;8.16;100.00
47815;BME280;33579;50.058;18.130;2023-04-15T01:19:20;97978.13;;;8.09;100.00
47815;BME280;33579;50.058;18.130;2023-04-15T01:20:21;97982.09;;;8.13;100.00
47815;BME280;33579;50.058;18.130;2023-04-15T01:21:23;97982.94;;;8.13;100.00
47815;BME280;33579;50.058;18.130;2023-04-15T01:22:26;97988.97;;;8.14;100.00
47815;BME280;33579;50.058;18.130;2023-04-15T01:23:28;97995.78;;;8.07;100.00
47815;BME280;33579;50.058;18.130;2023-04-15T01:24:31;98001.25;;;7.95;100.00
47815;BME280;33579;50.058;18.130;2023-04-15T01:25:33;97992.91;;;7.82;100.00
47815;BME280;33579;50.058;18.130;2023-04-15T01:26:37;98001.63;;;7.72;100.00
47815;BME280;33579;50.058;18.130;2023-04-15T01:27:41;97998.38;;;7.61;100.00
47815;BME280;33579;50.058;18.130;2023-04-15T01:28:43;98000.63;;;7.45;100.00
47815;BME280;33579;50.058;18.130;2023-04-15T01:29:45;97986.88;;;7.34;100.00
47815;BME280;33579;50.058;18.130;2023-04-15T01:30:46;97996.56;;;7.23;100.00
47815;BME280;33579;50.058;18.130;2023-04-15T01:31:53;97993.25;;;7.21;100.00
47815;BME280;33579;50.058;18.130;2023-04-15T01:32:55;97991.34;;;7.13;100.00
47815;BME280;33579;50.058;18.130;2023-04-15T01:33:57;97997.56;;;7.12;100.00
47815;BME280;33579;50.058;18.130;2023-04-15T01:34:59;97990.81;;;7.10;100.00
47815;BME280;33579;50.058;18.130;2023-04-15T01:36:01;97985.19;;;7.05;100.00
47815;BME280;33579;50.058;18.130;2023-04-15T01:37:02;97986.03;;;7.05;100.00
47815;BME280;33579;50.058;18.130;2023-04-15T01:38:06;97988.63;;;7.05;100.00
47815;BME280;33579;50.058;18.130;2023-04-15T01:39:08;97994.53;;;7.07;100.00
47815;BME280;33579;50.058;18.130;2023-04-15T01:40:10;97994.28;;;7.00;100.00
47815;BME280;33579;50.058;18.130;2023-04-15T01:41:12;97994.97;;;7.02;100.00
47815;BME280;33579;50.058;18.130;2023-04-15T01:42:14;97997.03;;;6.99;100.00
47815;BME280;33579;50.058;18.130;2023-04-15T01:43:16;97997.03;;;6.99;100.00
47815;BME280;33579;50.058;18.130;2023-04-15T01:44:17;97997.16;;;6.97;100.00
47815;BME280;33579;50.058;18.130;2023-04-15T01:45:19;97997.44;;;6.94;100.00
47815;BME280;33579;50.058;18.130;2023-04-15T01:46:21;98000.06;;;6.94;100.00
47815;BME280;33579;50.058;18.130;2023-04-15T01:47:23;98003.50;;;6.95;100.00
47815;BME280;33579;50.058;18.130;2023-04-15T01:48:24;98001.88;;;6.94;100.00
47815;BME280;33579;50.058;18.130;2023-04-15T01:49:26;98008.19;;;6.91;100.00
47815;BME280;33579;50.058;18.130;2023-04-15T01:50:28;98002.69;;;6.94;100.00
47815;BME280;33579;50.058;18.130;2023-04-15T01:51:29;98008.88;;;6.93;100.00
47815;BME280;33579;50.058;18.130;2023-04-15T01:52:31;98015.63;;;6.96;100.00
47815;BME280;33579;50.058;18.130;2023-04-15T01:53:32;98009.56;;;6.95;100.00
47815;BME280;33579;50.058;18.130;2023-04-15T01:54:35;98014.50;;;6.88;100.00
47815;BME280;33579;50.058;18.130;2023-04-15T01:55:37;98006.00;;;6.86;100.00
47815;BME280;33579;50.058;18.130;2023-04-15T01:56:38;98006.41;;;6.82;100.00
47815;BME280;33579;50.058;18.130;2023-04-15T01:57:40;98006.81;;;6.77;100.00
47815;BME280;33579;50.058;18.130;2023-04-15T01:58:42;98011.50;;;6.83;100.00
47815;BME280;33579;50.058;18.130;2023-04-15T01:59:44;98019.06;;;6.86;100.00
47815;BME280;33579;50.058;18.130;2023-04-15T02:00:45;98017.97;;;6.89;100.00
47815;BME280;33579;50.058;18.130;2023-04-15T02:01:47;98015.47;;;6.87;100.00
47815;BME280;33579;50.058;18.130;2023-04-15T02:02:49;98014.50;;;6.88;100.00
47815;BME280;33579;50.058;18.130;2023-04-15T02:03:51;98012.31;;;6.94;100.00
47815;BME280;33579;50.058;18.130;2023-04-15T02:04:52;98020.00;;;6.95;100.00
47815;BME280;33579;50.058;18.130;2023-04-15T02:05:54;98013.44;;;6.91;100.00
47815;BME280;33579;50.058;18.130;2023-04-15T02:06:56;98021.41;;;6.89;100.00
47815;BME280;33579;50.058;18.130;2023-04-15T02:07:57;98017.81;;;6.91;100.00
47815;BME280;33579;50.058;18.130;2023-04-15T02:08:59;98015.47;;;6.87;100.00
47815;BME280;33579;50.058;18.130;2023-04-15T02:10:01;98017.69;;;6.82;100.00
47815;BME280;33579;50.058;18.130;2023-04-15T02:11:02;98017.69;;;6.82;100.00
47815;BME280;33579;50.058;18.130;2023-04-15T02:12:05;98012.59;;;6.81;100.00
47815;BME280;33579;50.058;18.130;2023-04-15T02:13:07;98013.44;;;6.81;100.00
47815;BME280;33579;50.058;18.130;2023-04-15T02:14:08;98012.06;;;6.77;100.00
47815;BME280;33579;50.058;18.130;2023-04-15T02:15:10;98018.50;;;6.83;100.00
47815;BME280;33579;50.058;18.130;2023-04-15T02:16:17;98015.47;;;6.87;100.00
47815;BME280;33579;50.058;18.130;2023-04-15T02:17:19;98024.97;;;6.88;100.00
47815;BME280;33579;50.058;18.130;2023-04-15T02:18:21;98014.78;;;6.95;100.00
47815;BME280;33579;50.058;18.130;2023-04-15T02:19:22;98019.75;;;6.98;100.00
47815;BME280;33579;50.058;18.130;2023-04-15T02:20:24;98024.41;;;7.05;100.00
47815;BME280;33579;50.058;18.130;2023-04-15T02:21:26;98023.88;;;7.11;100.00
47815;BME280;33579;50.058;18.130;2023-04-15T02:22:27;98024.13;;;7.17;100.00
47815;BME280;33579;50.058;18.130;2023-04-15T02:23:29;98019.16;;;7.24;100.00
47815;BME280;33579;50.058;18.130;2023-04-15T02:24:30;98018.88;;;7.27;100.00
47815;BME280;33579;50.058;18.130;2023-04-15T02:25:32;98023.69;;;7.32;100.00
47815;BME280;33579;50.058;18.130;2023-04-15T02:26:34;98021.88;;;7.32;100.00
47815;BME280;33579;50.058;18.130;2023-04-15T02:27:35;98034.53;;;7.37;100.00
47815;BME280;33579;50.058;18.130;2023-04-15T02:28:37;98031.63;;;7.40;100.00
47815;BME280;33579;50.058;18.130;2023-04-15T02:29:39;98034.66;;;7.45;100.00
47815;BME280;33579;50.058;18.130;2023-04-15T02:30:41;98041.41;;;7.48;100.00
47815;BME280;33579;50.058;18.130;2023-04-15T02:31:43;98036.97;;;7.49;100.00
47815;BME280;33579;50.058;18.130;2023-04-15T02:32:44;98040.31;;;7.41;100.00
47815;BME280;33579;50.058;18.130;2023-04-15T02:33:46;98039.75;;;7.47;100.00
47815;BME280;33579;50.058;18.130;2023-04-15T02:34:48;98039.47;;;7.50;100.00
47815;BME280;33579;50.058;18.130;2023-04-15T02:35:49;98042.09;;;7.50;100.00
47815;BME280;33579;50.058;18.130;2023-04-15T02:36:51;98041.09;;;7.51;100.00
47815;BME280;33579;50.058;18.130;2023-04-15T02:37:52;98037.13;;;7.47;100.00
47815;BME280;33579;50.058;18.130;2023-04-15T02:38:54;98039.34;;;7.42;100.00
47815;BME280;33579;50.058;18.130;2023-04-15T02:39:56;98041.28;;;7.40;100.00
47815;BME280;33579;50.058;18.130;2023-04-15T02:40:58;98036.59;;;7.43;100.00
47815;BME280;33579;50.058;18.130;2023-04-15T02:41:59;98043.47;;;7.44;100.00
47815;BME280;33579;50.058;18.130;2023-04-15T02:43:01;98040.44;;;7.39;100.00
47815;BME280;33579;50.058;18.130;2023-04-15T02:44:03;98042.25;;;7.39;100.00
47815;BME280;33579;50.058;18.130;2023-04-15T02:45:05;98040.31;;;7.41;100.00
47815;BME280;33579;50.058;18.130;2023-04-15T02:46:08;98046.63;;;7.38;100.00
47815;BME280;33579;50.058;18.130;2023-04-15T02:47:12;98041.56;;;7.37;100.00
47815;BME280;33579;50.058;18.130;2023-04-15T02:48:13;98043.22;;;7.38;100.00
47815;BME280;33579;50.058;18.130;2023-04-15T02:49:15;98041.16;;;7.31;100.00
47815;BME280;33579;50.058;18.130;2023-04-15T02:50:16;98051.88;;;7.38;100.00
47815;BME280;33579;50.058;18.130;2023-04-15T02:51:19;98042.94;;;7.41;100.00
47815;BME280;33579;50.058;18.130;2023-04-15T02:52:21;98052.56;;;7.40;100.00
47815;BME280;33579;50.058;18.130;2023-04-15T02:53:23;98051.34;;;7.35;100.00
47815;BME280;33579;50.058;18.130;2023-04-15T02:54:25;98050.38;;;7.36;100.00
47815;BME280;33579;50.058;18.130;2023-04-15T02:55:27;98051.63;;;7.31;100.00
47815;BME280;33579;50.058;18.130;2023-04-15T02:56:29;98050.81;;;7.31;100.00
47815;BME280;33579;50.058;18.130;2023-04-15T02:57:30;98048.19;;;7.31;100.00
47815;BME280;33579;50.058;18.130;2023-04-15T02:58:38;98052.16;;;7.35;100.00
47815;BME280;33579;50.058;18.130;2023-04-15T02:59:40;98049.41;;;7.37;100.00
47815;BME280;33579;50.058;18.130;2023-04-15T03:00:42;98050.22;;;7.37;100.00
47815;BME280;33579;50.058;18.130;2023-04-15T03:01:43;98052.03;;;7.37;100.00
47815;BME280;33579;50.058;18.130;2023-04-15T03:02:45;98055.16;;;7.40;100.00
47815;BME280;33579;50.058;18.130;2023-04-15T03:03:47;98051.34;;;7.35;100.00
47815;BME280;33579;50.058;18.130;2023-04-15T03:04:49;98054.25;;;7.22;100.00
47815;BME280;33579;50.058;18.130;2023-04-15T03:05:51;98058.56;;;7.13;100.00
47815;BME280;33579;50.058;18.130;2023-04-15T03:06:52;98061.72;;;7.07;100.00
47815;BME280;33579;50.058;18.130;2023-04-15T03:07:54;98052.22;;;6.96;100.00
47815;BME280;33579;50.058;18.130;2023-04-15T03:08:56;98057.47;;;6.86;100.00
47815;BME280;33579;50.058;18.130;2023-04-15T03:09:57;98056.47;;;6.77;100.00
47815;BME280;33579;50.058;18.130;2023-04-15T03:10:59;98054.72;;;6.68;100.00
47815;BME280;33579;50.058;18.130;2023-04-15T03:12:01;98055.25;;;6.61;100.00
47815;BME280;33579;50.058;18.130;2023-04-15T03:13:03;98053.72;;;6.49;100.00
47815;BME280;33579;50.058;18.130;2023-04-15T03:14:05;98053.44;;;6.52;100.00
47815;BME280;33579;50.058;18.130;2023-04-15T03:15:09;98058.00;;;6.50;100.00
47815;BME280;33579;50.058;18.130;2023-04-15T03:16:15;98056.47;;;6.38;100.00
47815;BME280;33579;50.058;18.130;2023-04-15T03:17:17;98051.50;;;6.35;100.00
47815;BME280;33579;50.058;18.130;2023-04-15T03:18:18;98052.19;;;6.37;100.00
47815;BME280;33579;50.058;18.130;2023-04-15T03:19:20;98045.59;;;6.32;100.00
47815;BME280;33579;50.058;18.130;2023-04-15T03:20:22;98061.41;;;6.31;100.00
47815;BME280;33579;50.058;18.130;2023-04-15T03:21:23;98054.81;;;6.27;100.00
47815;BME280;33579;50.058;18.130;2023-04-15T03:22:25;98062.06;;;6.23;100.00
47815;BME280;33579;50.058;18.130;2023-04-15T03:23:27;98056.97;;;6.22;100.00
47815;BME280;33579;50.058;18.130;2023-04-15T03:24:30;98064.28;;;6.28;100.00
47815;BME280;33579;50.058;18.130;2023-04-15T03:25:31;98057.97;;;6.30;100.00
47815;BME280;33579;50.058;18.130;2023-04-15T03:26:34;98063.72;;;6.34;100.00
47815;BME280;33579;50.058;18.130;2023-04-15T03:27:42;98062.38;;;6.40;100.00
47815;BME280;33579;50.058;18.130;2023-04-15T03:28:45;98059.22;;;6.46;100.00
47815;BME280;33579;50.058;18.130;2023-04-15T03:29:48;98063.38;;;6.49;100.00
47815;BME280;33579;50.058;18.130;2023-04-15T03:30:51;98059.50;;;6.53;100.00
47815;BME280;33579;50.058;18.130;2023-04-15T03:31:53;98064.34;;;6.57;100.00
47815;BME280;33579;50.058;18.130;2023-04-15T03:32:54;98065.16;;;6.58;100.00
47815;BME280;33579;50.058;18.130;2023-04-15T03:33:56;98073.53;;;6.61;100.00
47815;BME280;33579;50.058;18.130;2023-04-15T03:34:58;98077.81;;;6.63;100.00
47815;BME280;33579;50.058;18.130;2023-04-15T03:35:59;98070.66;;;6.65;100.00
47815;BME280;33579;50.058;18.130;2023-04-15T03:37:01;98071.50;;;6.65;100.00
47815;BME280;33579;50.058;18.130;2023-04-15T03:38:02;98075.19;;;6.63;100.00
47815;BME280;33579;50.058;18.130;2023-04-15T03:39:04;98079.06;;;6.68;100.00
47815;BME280;33579;50.058;18.130;2023-04-15T03:40:06;98072.03;;;6.59;100.00
47815;BME280;33579;50.058;18.130;2023-04-15T03:41:08;98077.81;;;6.53;100.00
47815;BME280;33579;50.058;18.130;2023-04-15T03:42:10;98080.97;;;6.56;100.00
47815;BME280;33579;50.058;18.130;2023-04-15T03:43:11;98079.19;;;6.57;100.00
47815;BME280;33579;50.058;18.130;2023-04-15T03:44:13;98079.19;;;6.57;100.00
47815;BME280;33579;50.058;18.130;2023-04-15T03:45:14;98074.50;;;6.51;100.00
47815;BME280;33579;50.058;18.130;2023-04-15T03:46:17;98072.13;;;6.47;100.00
47815;BME280;33579;50.058;18.130;2023-04-15T03:47:18;98082.31;;;6.41;100.00
47815;BME280;33579;50.058;18.130;2023-04-15T03:48:20;98074.06;;;6.45;100.00
47815;BME280;33579;50.058;18.130;2023-04-15T03:49:22;98074.34;;;6.32;100.00
47815;BME280;33579;50.058;18.130;2023-04-15T03:50:23;98078.13;;;6.18;100.00
47815;BME280;33579;50.058;18.130;2023-04-15T03:51:25;98075.66;;;6.17;100.00
47815;BME280;33579;50.058;18.130;2023-04-15T03:52:26;98074.56;;;6.19;100.00
47815;BME280;33579;50.058;18.130;2023-04-15T03:53:28;98072.34;;;6.15;100.00
47815;BME280;33579;50.058;18.130;2023-04-15T03:54:30;98080.84;;;6.07;100.00
47815;BME280;33579;50.058;18.130;2023-04-15T03:55:31;98085.50;;;6.03;100.00
47815;BME280;33579;50.058;18.130;2023-04-15T03:56:33;98087.31;;;6.03;100.00
47815;BME280;33579;50.058;18.130;2023-04-15T03:57:34;98084.31;;;6.08;100.00
47815;BME280;33579;50.058;18.130;2023-04-15T03:58:36;98090.59;;;6.05;100.00
47815;BME280;33579;50.058;18.130;2023-04-15T03:59:37;98089.91;;;6.03;100.00
47815;BME280;33579;50.058;18.130;2023-04-15T04:00:39;98091.97;;;6.09;100.00
47815;BME280;33579;50.058;18.130;2023-04-15T04:01:41;98093.81;;;6.18;100.00
47815;BME280;33579;50.058;18.130;2023-04-15T04:02:42;98098.63;;;6.23;100.00
47815;BME280;33579;50.058;18.130;2023-04-15T04:03:44;98100.97;;;6.26;100.00
47815;BME280;33579;50.058;18.130;2023-04-15T04:04:46;98099.88;;;6.29;100.00
47815;BME280;33579;50.058;18.130;2023-04-15T04:05:48;98102.09;;;6.33;100.00
47815;BME280;33579;50.058;18.130;2023-04-15T04:06:49;98107.19;;;6.35;100.00
47815;BME280;33579;50.058;18.130;2023-04-15T04:07:51;98102.78;;;6.36;100.00
47815;BME280;33579;50.058;18.130;2023-04-15T04:08:53;98109.41;;;6.40;100.00
47815;BME280;33579;50.058;18.130;2023-04-15T04:09:56;98109.69;;;6.46;100.00
47815;BME280;33579;50.058;18.130;2023-04-15T04:10:58;98097.19;;;6.50;100.00
47815;BME280;33579;50.058;18.130;2023-04-15T04:12:00;98108.06;;;6.55;100.00
47815;BME280;33579;50.058;18.130;2023-04-15T04:13:01;98109.44;;;6.59;100.00
47815;BME280;33579;50.058;18.130;2023-04-15T04:14:03;98112.19;;;6.58;100.00
47815;BME280;33579;50.058;18.130;2023-04-15T04:15:05;98109.97;;;6.53;100.00
47815;BME280;33579;50.058;18.130;2023-04-15T04:16:06;98110.53;;;6.57;100.00
47815;BME280;33579;50.058;18.130;2023-04-15T04:17:08;98112.06;;;6.59;100.00
47815;BME280;33579;50.058;18.130;2023-04-15T04:18:10;98114.00;;;6.57;100.00
47815;BME280;33579;50.058;18.130;2023-04-15T04:19:12;98125.25;;;6.58;100.00
47815;BME280;33579;50.058;18.130;2023-04-15T04:20:13;98123.75;;;6.55;100.00
47815;BME280;33579;50.058;18.130;2023-04-15T04:21:15;98120.03;;;6.58;100.00
47815;BME280;33579;50.058;18.130;2023-04-15T04:22:21;98111.22;;;6.59;100.00
47815;BME280;33579;50.058;18.130;2023-04-15T04:23:23;98115.22;;;6.63;100.00
47815;BME280;33579;50.058;18.130;2023-04-15T04:24:24;98120.06;;;6.68;100.00
47815;BME280;33579;50.058;18.130;2023-04-15T04:25:26;98127.34;;;6.74;100.00
47815;BME280;33579;50.058;18.130;2023-04-15T04:26:27;98117.72;;;6.74;100.00
47815;BME280;33579;50.058;18.130;2023-04-15T04:27:29;98124.72;;;6.74;100.00
47815;BME280;33579;50.058;18.130;2023-04-15T04:28:31;98116.75;;;6.75;100.00
47815;BME280;33579;50.058;18.130;2023-04-15T04:29:32;98120.75;;;6.80;100.00
47815;BME280;33579;50.058;18.130;2023-04-15T04:30:34;98118.00;;;6.81;100.00
47815;BME280;33579;50.058;18.130;2023-04-15T04:31:36;98124.03;;;6.82;100.00
47815;BME280;33579;50.058;18.130;2023-04-15T04:32:37;98122.97;;;6.84;100.00
47815;BME280;33579;50.058;18.130;2023-04-15T04:33:39;98128.75;;;6.88;100.00
47815;BME280;33579;50.058;18.130;2023-04-15T04:34:41;98125.72;;;6.93;100.00
47815;BME280;33579;50.058;18.130;2023-04-15T04:35:42;98127.91;;;6.97;100.00
47815;BME280;33579;50.058;18.130;2023-04-15T04:36:44;98132.72;;;7.02;100.00
47815;BME280;33579;50.058;18.130;2023-04-15T04:37:45;98132.03;;;7.00;100.00
47815;BME280;33579;50.058;18.130;2023-04-15T04:38:47;98125.44;;;6.96;100.00
47815;BME280;33579;50.058;18.130;2023-04-15T04:39:48;98126.13;;;6.98;100.00
47815;BME280;33579;50.058;18.130;2023-04-15T04:40:50;98120.63;;;7.01;100.00
47815;BME280;33579;50.058;18.130;2023-04-15T04:41:52;98122.13;;;7.03;100.00
47815;BME280;33579;50.058;18.130;2023-04-15T04:42:53;98119.53;;;7.03;100.00
47815;BME280;33579;50.058;18.130;2023-04-15T04:43:55;98120.38;;;7.04;100.00
47815;BME280;33579;50.058;18.130;2023-04-15T04:44:56;98123.22;;;7.01;100.00
47815;BME280;33579;50.058;18.130;2023-04-15T04:45:58;98128.34;;;7.02;100.00
47815;BME280;33579;50.058;18.130;2023-04-15T04:46:59;98121.03;;;7.06;100.00
47815;BME280;33579;50.058;18.130;2023-04-15T04:48:01;98119.78;;;7.10;100.00
47815;BME280;33579;50.058;18.130;2023-04-15T04:49:03;98133.72;;;7.11;100.00
47815;BME280;33579;50.058;18.130;2023-04-15T04:50:05;98120.22;;;6.96;100.00
47815;BME280;33579;50.058;18.130;2023-04-15T04:51:07;98125.84;;;6.81;100.00
47815;BME280;33579;50.058;18.130;2023-04-15T04:52:09;98122.28;;;6.82;100.00
47815;BME280;33579;50.058;18.130;2023-04-15T04:53:10;98125.16;;;6.89;100.00
47815;BME280;33579;50.058;18.130;2023-04-15T04:54:12;98127.66;;;7.00;100.00
47815;BME280;33579;50.058;18.130;2023-04-15T04:55:13;98120.75;;;7.09;100.00
47815;BME280;33579;50.058;18.130;2023-04-15T04:56:15;98116.22;;;7.11;100.00
47815;BME280;33579;50.058;18.130;2023-04-15T04:57:16;98100.53;;;7.11;100.00
47815;BME280;33579;50.058;18.130;2023-04-15T04:58:18;98107.97;;;7.16;100.00
47815;BME280;33579;50.058;18.130;2023-04-15T04:59:19;98104.09;;;7.20;100.00
47815;BME280;33579;50.058;18.130;2023-04-15T05:00:21;98108.78;;;7.26;100.00
47815;BME280;33579;50.058;18.130;2023-04-15T05:01:23;98103.13;;;7.31;100.00
47815;BME280;33579;50.058;18.130;2023-04-15T05:02:24;98109.03;;;7.43;100.00
47815;BME280;33579;50.058;18.130;2023-04-15T05:03:26;98104.06;;;7.50;100.00
47815;BME280;33579;50.058;18.130;2023-04-15T05:04:28;98107.09;;;7.55;100.00
47815;BME280;33579;50.058;18.130;2023-04-15T05:05:29;98104.84;;;7.60;100.00
47815;BME280;33579;50.058;18.130;2023-04-15T05:06:31;98104.44;;;7.65;100.00
47815;BME280;33579;50.058;18.130;2023-04-15T05:07:33;98098.50;;;7.72;100.00
47815;BME280;33579;50.058;18.130;2023-04-15T05:08:34;98110.06;;;7.80;100.00
47815;BME280;33579;50.058;18.130;2023-04-15T05:09:37;98114.72;;;7.86;100.00
47815;BME280;33579;50.058;18.130;2023-04-15T05:10:38;98121.59;;;7.87;100.00
47815;BME280;33579;50.058;18.130;2023-04-15T05:11:40;98128.78;;;7.85;100.00
47815;BME280;33579;50.058;18.130;2023-04-15T05:12:42;98124.63;;;7.92;100.00
47815;BME280;33579;50.058;18.130;2023-04-15T05:13:44;98128.72;;;8.05;100.00
47815;BME280;33579;50.058;18.130;2023-04-15T05:14:45;98132.13;;;8.15;100.00
47815;BME280;33579;50.058;18.130;2023-04-15T05:15:47;98127.25;;;8.20;100.00
47815;BME280;33579;50.058;18.130;2023-04-15T05:16:48;98124.59;;;8.30;100.00
47815;BME280;33579;50.058;18.130;2023-04-15T05:17:50;98138.03;;;8.45;100.00
47815;BME280;33579;50.058;18.130;2023-04-15T05:18:52;98136.06;;;8.57;100.00
47815;BME280;33579;50.058;18.130;2023-04-15T05:19:53;98133.75;;;8.54;100.00
47815;BME280;33579;50.058;18.130;2023-04-15T05:20:55;98136.38;;;8.72;100.00
47815;BME280;33579;50.058;18.130;2023-04-15T05:21:57;98143.75;;;8.86;100.00
47815;BME280;33579;50.058;18.130;2023-04-15T05:22:59;98140.53;;;8.93;100.00
47815;BME280;33579;50.058;18.130;2023-04-15T05:24:00;98146.53;;;9.03;100.00